createdAt,value
2023-01-17T00:02:15.531Z,96173.00
2023-01-17T00:05:03.310Z,96183.00
2023-01-17T00:07:49.042Z,96187.00
2023-01-17T00:10:20.913Z,96184.00
2023-01-17T00:12:52.092Z,96178.00
2023-01-17T00:15:23.202Z,96154.00
2023-01-17T00:17:53.625Z,96171.00
2023-01-17T00:20:44.268Z,96162.00
2023-01-17T00:23:47.201Z,96173.00
2023-01-17T00:26:20.055Z,96153.00
2023-01-17T00:28:49.327Z,96165.00
2023-01-17T00:31:18.514Z,96150.00
2023-01-17T00:33:46.845Z,96157.00
2023-01-17T00:36:14.465Z,96158.00
2023-01-17T00:38:41.841Z,96165.00
2023-01-17T00:41:11.775Z,96165.00
2023-01-17T00:43:58.429Z,96168.00
2023-01-17T00:46:44.929Z,96170.00
2023-01-17T00:49:32.425Z,96168.00
2023-01-17T00:52:19.546Z,96171.00
2023-01-17T00:55:05.389Z,96169.00
2023-01-17T00:57:51.475Z,96174.00
2023-01-17T01:00:37.410Z,96147.00
2023-01-17T01:03:27.608Z,96176.00
2023-01-17T01:06:14.196Z,96170.00
2023-01-17T01:08:59.760Z,96167.00
2023-01-17T01:11:45.846Z,96173.00
2023-01-17T01:14:31.942Z,96171.00
2023-01-17T01:17:17.315Z,96177.00
2023-01-17T01:20:03.207Z,96180.00
2023-01-17T01:22:50.119Z,96173.00
2023-01-17T01:25:35.747Z,96175.00
2023-01-17T01:28:23.934Z,96186.00
2023-01-17T01:31:10.274Z,96175.00
2023-01-17T01:33:39.118Z,96184.00
2023-01-17T01:36:09.803Z,96181.00
2023-01-17T01:38:40.251Z,96175.00
2023-01-17T01:41:09.222Z,96172.00
2023-01-17T01:43:49.300Z,96175.00
2023-01-17T01:46:24.407Z,96182.00
2023-01-17T01:48:57.466Z,96181.00
2023-01-17T01:51:30.272Z,96180.00
2023-01-17T01:54:07.513Z,96176.00
2023-01-17T01:56:35.715Z,96169.00
2023-01-17T01:59:07.975Z,96180.00
2023-01-17T02:01:37.134Z,96184.00
2023-01-17T02:04:09.926Z,96180.00
2023-01-17T02:06:42.861Z,96176.00
2023-01-17T02:09:17.865Z,96161.00
2023-01-17T02:11:49.748Z,96175.00
2023-01-17T02:14:21.335Z,96185.00
2023-01-17T02:17:11.633Z,96184.00
2023-01-17T02:20:29.596Z,96181.00
2023-01-17T02:23:55.167Z,96180.00
2023-01-17T02:27:17.614Z,96189.00
2023-01-17T02:30:36.100Z,96192.00
2023-01-17T02:33:28.289Z,96207.00
2023-01-17T02:36:08.799Z,96199.00
2023-01-17T02:38:48.099Z,96205.00
2023-01-17T02:41:22.595Z,96205.00
2023-01-17T02:43:53.379Z,96215.00
2023-01-17T02:46:21.762Z,96216.00
2023-01-17T02:48:52.488Z,96227.00
2023-01-17T02:51:50.002Z,96210.00
2023-01-17T02:54:48.018Z,96216.00
2023-01-17T02:57:40.072Z,96223.00
2023-01-17T03:00:21.517Z,96217.00
2023-01-17T03:03:03.161Z,96227.00
2023-01-17T03:05:41.404Z,96235.00
2023-01-17T03:08:12.754Z,96227.00
2023-01-17T03:10:42.485Z,96238.00
2023-01-17T03:13:10.441Z,96243.00
2023-01-17T03:15:40.142Z,96253.00
2023-01-17T03:18:13.544Z,96247.00
2023-01-17T03:20:43.225Z,96245.00
2023-01-17T03:23:11.231Z,96255.00
2023-01-17T03:25:39.124Z,96260.00
2023-01-17T03:28:07.052Z,96261.00
2023-01-17T03:30:34.950Z,96272.00
2023-01-17T03:33:02.911Z,96265.00
2023-01-17T03:35:30.787Z,96269.00
2023-01-17T03:37:59.997Z,96289.00
2023-01-17T03:40:27.945Z,96288.00
2023-01-17T03:42:55.774Z,96277.00
2023-01-17T03:45:23.643Z,96290.00
2023-01-17T03:47:51.672Z,96301.00
2023-01-17T03:50:19.520Z,96295.00
2023-01-17T03:52:47.402Z,96303.00
2023-01-17T03:55:16.811Z,96312.00
2023-01-17T03:57:44.732Z,96320.00
2023-01-17T04:00:14.355Z,96326.00
2023-01-17T04:02:42.282Z,96329.00
2023-01-17T04:05:10.944Z,96322.00
2023-01-17T04:07:38.802Z,96321.00
2023-01-17T04:10:08.324Z,96326.00
2023-01-17T04:12:37.494Z,96327.00
2023-01-17T04:15:06.291Z,96328.00
2023-01-17T04:17:34.290Z,96338.00
2023-01-17T04:20:02.112Z,96348.00
2023-01-17T04:22:31.541Z,96342.00
2023-01-17T04:24:59.417Z,96343.00
2023-01-17T04:27:27.455Z,96347.00
2023-01-17T04:29:56.668Z,96351.00
2023-01-17T04:32:24.520Z,96357.00
2023-01-17T04:34:52.406Z,96359.00
2023-01-17T04:37:20.236Z,96361.00
2023-01-17T04:39:48.094Z,96358.00
2023-01-17T04:42:15.959Z,96370.00
2023-01-17T04:44:43.828Z,96367.00
2023-01-17T04:47:13.013Z,96373.00
2023-01-17T04:49:42.289Z,96363.00
2023-01-17T04:52:11.274Z,96370.00
2023-01-17T04:54:39.141Z,96372.00
2023-01-17T04:57:07.034Z,96388.00
2023-01-17T04:59:34.878Z,96386.00
2023-01-17T05:02:03.085Z,96394.00
2023-01-17T05:04:32.345Z,96397.00
2023-01-17T05:07:00.269Z,96396.00
2023-01-17T05:09:28.230Z,96398.00
2023-01-17T05:11:56.595Z,96408.00
2023-01-17T05:14:26.191Z,96423.00
2023-01-17T05:16:54.869Z,96411.00
2023-01-17T05:19:22.894Z,96428.00
2023-01-17T05:21:52.392Z,96432.00
2023-01-17T05:24:20.877Z,96444.00
2023-01-17T05:26:54.622Z,96432.00
2023-01-17T05:29:22.782Z,96446.00
2023-01-17T05:31:50.624Z,96443.00
2023-01-17T05:34:18.514Z,96443.00
2023-01-17T05:36:46.362Z,96445.00
2023-01-17T05:39:15.550Z,96440.00
2023-01-17T05:41:43.411Z,96462.00
2023-01-17T05:44:11.497Z,96460.00
2023-01-17T05:46:39.512Z,96450.00
2023-01-17T05:49:07.479Z,96454.00
2023-01-17T05:51:37.751Z,96458.00
2023-01-17T05:54:06.397Z,96463.00
2023-01-17T05:56:35.680Z,96463.00
2023-01-17T05:59:03.816Z,96450.00
2023-01-17T06:01:31.759Z,96468.00
2023-01-17T06:03:59.613Z,96464.00
2023-01-17T06:06:27.478Z,96472.00
2023-01-17T06:08:55.333Z,96476.00
2023-01-17T06:11:23.190Z,96473.00
2023-01-17T06:13:52.378Z,96489.00
2023-01-17T06:16:20.342Z,96480.00
2023-01-17T06:18:48.254Z,96483.00
2023-01-17T06:21:16.142Z,96491.00
2023-01-17T06:23:44.024Z,96494.00
2023-01-17T06:26:11.991Z,96495.00
2023-01-17T06:28:39.869Z,96494.00
2023-01-17T06:31:10.423Z,96492.00
2023-01-17T06:33:38.457Z,96506.00
2023-01-17T06:36:07.198Z,96508.00
2023-01-17T06:38:35.224Z,96513.00
2023-01-17T06:41:05.698Z,96519.00
2023-01-17T06:43:34.867Z,96514.00
2023-01-17T06:46:02.987Z,96506.00
2023-01-17T06:48:32.215Z,96521.00
2023-01-17T06:51:00.111Z,96527.00
2023-01-17T06:53:27.956Z,96534.00
2023-01-17T06:55:57.538Z,96534.00
2023-01-17T06:58:25.539Z,96538.00
2023-01-17T07:00:53.799Z,96527.00
2023-01-17T07:03:24.417Z,96549.00
2023-01-17T07:05:54.162Z,96548.00
2023-01-17T07:08:22.285Z,96554.00
2023-01-17T07:10:50.306Z,96549.00
2023-01-17T07:13:18.214Z,96554.00
2023-01-17T07:15:46.296Z,96561.00
2023-01-17T07:18:14.600Z,96563.00
2023-01-17T07:20:44.729Z,96572.00
2023-01-17T07:23:14.899Z,96576.00
2023-01-17T07:25:42.778Z,96563.00
2023-01-17T07:28:11.088Z,96571.00
2023-01-17T07:30:38.924Z,96567.00
2023-01-17T07:33:06.829Z,96560.00
2023-01-17T07:35:34.974Z,96566.00
2023-01-17T07:38:02.919Z,96567.00
2023-01-17T07:40:41.403Z,96562.00
2023-01-17T07:43:14.017Z,96563.00
2023-01-17T07:45:43.750Z,96562.00
2023-01-17T07:48:12.554Z,96564.00
2023-01-17T07:50:40.633Z,96571.00
2023-01-17T07:53:08.603Z,96570.00
2023-01-17T07:55:38.058Z,96553.00
2023-01-17T07:58:05.914Z,96573.00
2023-01-17T08:00:33.805Z,96579.00
2023-01-17T08:03:02.226Z,96583.00
2023-01-17T08:05:31.163Z,96586.00
2023-01-17T08:07:59.170Z,96591.00
2023-01-17T08:10:27.006Z,96590.00
2023-01-17T08:12:56.336Z,96596.00
2023-01-17T08:15:26.569Z,96593.00
2023-01-17T08:17:54.421Z,96591.00
2023-01-17T08:20:23.353Z,96593.00
2023-01-17T08:22:55.791Z,96596.00
2023-01-17T08:25:25.463Z,96593.00
2023-01-17T08:27:59.106Z,96611.00
2023-01-17T08:30:27.967Z,96604.00
2023-01-17T08:32:56.403Z,96618.00
2023-01-17T08:35:24.766Z,96622.00
2023-01-17T08:37:56.312Z,96621.00
2023-01-17T08:40:25.157Z,96630.00
2023-01-17T08:42:59.437Z,96633.00
2023-01-17T08:45:28.419Z,96638.00
2023-01-17T08:47:58.609Z,96642.00
2023-01-17T08:50:26.895Z,96635.00
2023-01-17T08:53:01.083Z,96633.00
2023-01-17T08:55:29.383Z,96638.00
2023-01-17T08:57:58.833Z,96637.00
2023-01-17T09:00:28.484Z,96646.00
2023-01-17T09:02:56.401Z,96640.00
2023-01-17T09:05:24.399Z,96649.00
2023-01-17T09:07:52.277Z,96646.00
2023-01-17T09:10:20.320Z,96658.00
2023-01-17T09:12:48.188Z,96661.00
2023-01-17T09:15:20.150Z,96667.00
2023-01-17T09:17:48.218Z,96678.00
2023-01-17T09:20:16.238Z,96681.00
2023-01-17T09:22:45.991Z,96674.00
2023-01-17T09:25:14.067Z,96688.00
2023-01-17T09:27:46.753Z,96690.00
2023-01-17T09:30:17.395Z,96702.00
2023-01-17T09:32:45.276Z,96713.00
2023-01-17T09:35:13.562Z,96712.00
2023-01-17T09:37:41.416Z,96711.00
2023-01-17T09:40:17.680Z,96717.00
2023-01-17T09:42:46.522Z,96708.00
2023-01-17T09:45:20.722Z,96716.00
2023-01-17T09:47:52.145Z,96710.00
2023-01-17T09:50:30.716Z,96711.00
2023-01-17T09:53:02.528Z,96704.00
2023-01-17T09:55:38.122Z,96710.00
2023-01-17T09:58:12.682Z,96701.00
2023-01-17T10:01:03.564Z,96718.00
2023-01-17T10:03:51.492Z,96719.00
2023-01-17T10:06:36.716Z,96717.00
2023-01-17T10:09:29.880Z,96711.00
2023-01-17T10:12:19.542Z,96704.00
2023-01-17T10:15:34.362Z,96701.00
2023-01-17T10:18:30.693Z,96706.00
2023-01-17T10:21:09.541Z,96701.00
2023-01-17T10:24:21.810Z,96716.00
2023-01-17T10:26:54.430Z,96715.00
2023-01-17T10:29:27.929Z,96716.00
2023-01-17T10:32:02.022Z,96714.00
2023-01-17T10:34:38.133Z,96718.00
2023-01-17T10:37:18.955Z,96723.00
2023-01-17T10:39:50.487Z,96723.00
2023-01-17T10:42:25.445Z,96725.00
2023-01-17T10:45:05.053Z,96722.00
2023-01-17T10:47:39.373Z,96726.00
2023-01-17T10:50:14.666Z,96717.00
2023-01-17T10:52:53.199Z,96729.00
2023-01-17T10:55:36.019Z,96726.00
2023-01-17T10:58:04.763Z,96720.00
2023-01-17T11:00:45.366Z,96708.00
2023-01-17T11:03:16.056Z,96717.00
2023-01-17T11:05:45.518Z,96722.00
2023-01-17T11:08:15.612Z,96724.00
2023-01-17T11:10:47.136Z,96704.00
2023-01-17T11:13:30.676Z,96710.00
2023-01-17T11:16:02.240Z,96701.00
2023-01-17T11:18:33.368Z,96711.00
2023-01-17T11:21:15.288Z,96717.00
2023-01-17T11:23:46.148Z,96719.00
2023-01-17T11:26:25.671Z,96713.00
2023-01-17T11:28:54.355Z,96726.00
2023-01-17T11:31:27.788Z,96732.00
2023-01-17T11:34:16.714Z,96725.00
2023-01-17T11:36:46.635Z,96719.00
2023-01-17T11:39:27.393Z,96725.00
2023-01-17T11:41:56.068Z,96729.00
2023-01-17T11:44:27.674Z,96708.00
2023-01-17T11:47:19.024Z,96734.00
2023-01-17T11:49:49.960Z,96708.00
2023-01-17T11:52:26.230Z,96719.00
2023-01-17T11:54:56.389Z,96734.00
2023-01-17T11:57:28.066Z,96717.00
2023-01-17T12:00:11.638Z,96725.00
2023-01-17T12:03:13.480Z,96728.00
2023-01-17T12:05:53.662Z,96733.00
2023-01-17T12:08:51.131Z,96730.00
2023-01-17T12:11:30.546Z,96714.00
2023-01-17T12:14:11.493Z,96728.00
2023-01-17T12:16:58.624Z,96732.00
2023-01-17T12:19:38.905Z,96740.00
2023-01-17T12:22:25.043Z,96733.00
2023-01-17T12:25:25.587Z,96735.00
2023-01-17T12:28:12.424Z,96741.00
2023-01-17T12:31:03.172Z,96746.00
2023-01-17T12:33:43.568Z,96748.00
2023-01-17T12:36:31.034Z,96748.00
2023-01-17T12:39:06.220Z,96749.00
2023-01-17T12:41:50.441Z,96760.00
2023-01-17T12:44:24.114Z,96758.00
2023-01-17T12:47:01.804Z,96756.00
2023-01-17T12:49:42.507Z,96759.00
2023-01-17T12:52:22.528Z,96763.00
2023-01-17T12:54:56.390Z,96764.00
2023-01-17T12:57:32.850Z,96762.00
2023-01-17T13:00:07.588Z,96759.00
2023-01-17T13:02:41.775Z,96759.00
2023-01-17T13:05:17.065Z,96777.00
2023-01-17T13:07:54.469Z,96770.00
2023-01-17T13:10:32.074Z,96776.00
2023-01-17T13:13:16.601Z,96790.00
2023-01-17T13:15:45.182Z,96777.00
2023-01-17T13:18:22.590Z,96788.00
2023-01-17T13:21:08.295Z,96787.00
2023-01-17T13:23:59.009Z,96791.00
2023-01-17T13:26:44.213Z,96787.00
2023-01-17T13:29:33.348Z,96795.00
2023-01-17T13:32:22.567Z,96789.00
2023-01-17T13:35:20.809Z,96794.00
2023-01-17T13:38:22.278Z,96796.00
2023-01-17T13:40:58.321Z,96795.00
2023-01-17T13:43:32.399Z,96802.00
2023-01-17T13:46:04.430Z,96809.00
2023-01-17T13:48:37.321Z,96806.00
2023-01-17T13:51:06.069Z,96806.00
2023-01-17T13:53:58.940Z,96799.00
2023-01-17T13:56:37.591Z,96803.00
2023-01-17T13:59:28.046Z,96808.00
2023-01-17T14:01:57.462Z,96820.00
2023-01-17T14:05:07.349Z,96817.00
2023-01-17T14:07:41.576Z,96821.00
2023-01-17T14:10:30.720Z,96811.00
2023-01-17T14:12:59.454Z,96818.00
2023-01-17T14:15:29.998Z,96811.00
2023-01-17T14:18:01.751Z,96821.00
2023-01-17T14:20:49.738Z,96814.00
2023-01-17T14:23:56.928Z,96823.00
2023-01-17T14:26:33.414Z,96814.00
2023-01-17T14:29:52.518Z,96824.00
2023-01-17T14:32:24.571Z,96824.00
2023-01-17T14:34:55.261Z,96817.00
2023-01-17T14:37:44.888Z,96824.00
2023-01-17T14:40:20.986Z,96825.00
2023-01-17T14:43:01.347Z,96824.00
2023-01-17T14:45:32.506Z,96829.00
2023-01-17T14:48:04.148Z,96827.00
2023-01-17T14:50:39.325Z,96826.00
2023-01-17T14:53:18.122Z,96831.00
2023-01-17T14:56:01.750Z,96835.00
2023-01-17T14:58:32.720Z,96840.00
2023-01-17T15:01:03.977Z,96835.00
2023-01-17T15:03:42.591Z,96843.00
2023-01-17T15:06:17.844Z,96824.00
2023-01-17T15:08:46.238Z,96846.00
2023-01-17T15:11:20.804Z,96833.00
2023-01-17T15:13:53.283Z,96837.00
2023-01-17T15:16:25.860Z,96841.00
2023-01-17T15:18:57.167Z,96847.00
2023-01-17T15:21:30.712Z,96846.00
2023-01-17T15:24:01.437Z,96846.00
2023-01-17T15:26:42.497Z,96842.00
2023-01-17T15:29:22.178Z,96844.00
2023-01-17T15:31:54.048Z,96837.00
2023-01-17T15:34:28.541Z,96835.00
2023-01-17T15:37:01.345Z,96836.00
2023-01-17T15:39:32.574Z,96834.00
2023-01-17T15:42:04.279Z,96841.00
2023-01-17T15:44:53.039Z,96841.00
2023-01-17T15:47:34.364Z,96841.00
2023-01-17T15:50:27.762Z,96846.00
2023-01-17T15:53:00.815Z,96844.00
2023-01-17T15:55:33.360Z,96834.00
2023-01-17T15:58:02.314Z,96844.00
2023-01-17T16:00:38.335Z,96847.00
2023-01-17T16:03:24.497Z,96858.00
2023-01-17T16:05:57.650Z,96854.00
2023-01-17T16:08:34.125Z,96862.00
2023-01-17T16:11:06.168Z,96862.00
2023-01-17T16:13:38.460Z,96859.00
2023-01-17T16:17:22.387Z,96855.00
2023-01-17T16:19:50.596Z,96850.00
2023-01-17T16:22:18.507Z,96855.00
2023-01-17T16:24:46.363Z,96839.00
2023-01-17T16:27:14.260Z,96830.00
2023-01-17T16:29:42.152Z,96833.00
2023-01-17T16:32:10.104Z,96835.00
2023-01-17T16:34:39.256Z,96830.00
2023-01-17T16:37:08.086Z,96832.00
2023-01-17T16:39:35.995Z,96833.00
2023-01-17T16:42:04.336Z,96842.00
2023-01-17T16:44:33.512Z,96825.00
2023-01-17T16:47:02.236Z,96830.00
2023-01-17T16:49:33.153Z,96816.00
2023-01-17T16:52:02.362Z,96806.00
2023-01-17T16:54:30.343Z,96813.00
2023-01-17T16:56:58.349Z,96812.00
2023-01-17T16:59:32.203Z,96808.00
2023-01-17T17:02:05.324Z,96820.00
2023-01-17T17:04:33.331Z,96821.00
2023-01-17T17:07:02.636Z,96811.00
2023-01-17T17:09:30.771Z,96818.00
2023-01-17T17:11:58.889Z,96830.00
2023-01-17T17:14:27.244Z,96822.00
2023-01-17T17:16:55.199Z,96828.00
2023-01-17T17:19:23.366Z,96821.00
2023-01-17T17:21:51.727Z,96823.00
2023-01-17T17:24:21.171Z,96830.00
2023-01-17T17:26:49.106Z,96835.00
2023-01-17T17:29:17.528Z,96840.00
2023-01-17T17:31:46.073Z,96839.00
2023-01-17T17:34:15.784Z,96825.00
2023-01-17T17:36:44.583Z,96842.00
2023-01-17T17:39:15.676Z,96850.00
2023-01-17T17:41:46.506Z,96850.00
2023-01-17T17:44:15.035Z,96839.00
2023-01-17T17:46:43.230Z,96850.00
2023-01-17T17:49:11.333Z,96843.00
2023-01-17T17:51:41.320Z,96854.00
2023-01-17T17:54:12.596Z,96838.00
2023-01-17T17:56:42.415Z,96842.00
2023-01-17T17:59:13.989Z,96836.00
2023-01-17T18:01:42.458Z,96849.00
2023-01-17T18:04:12.412Z,96846.00
2023-01-17T18:06:41.360Z,96845.00
2023-01-17T18:09:11.790Z,96847.00
2023-01-17T18:11:42.937Z,96849.00
2023-01-17T18:14:16.174Z,96847.00
2023-01-17T18:16:47.139Z,96839.00
2023-01-17T18:19:19.396Z,96844.00
2023-01-17T18:21:48.653Z,96846.00
2023-01-17T18:24:20.121Z,96846.00
2023-01-17T18:26:51.137Z,96844.00
2023-01-17T18:29:23.120Z,96860.00
2023-01-17T18:31:53.517Z,96840.00
2023-01-17T18:34:24.775Z,96842.00
2023-01-17T18:36:53.633Z,96838.00
2023-01-17T18:39:24.713Z,96852.00
2023-01-17T18:41:53.166Z,96810.00
2023-01-17T18:44:23.348Z,96847.00
2023-01-17T18:46:51.706Z,96854.00
2023-01-17T18:49:19.901Z,96849.00
2023-01-17T18:51:51.506Z,96854.00
2023-01-17T18:54:21.194Z,96854.00
2023-01-17T18:56:49.551Z,96860.00
2023-01-17T18:59:19.762Z,96851.00
2023-01-17T19:01:49.322Z,96855.00
2023-01-17T19:04:18.300Z,96866.00
2023-01-17T19:06:48.872Z,96856.00
2023-01-17T19:09:18.175Z,96845.00
2023-01-17T19:11:47.638Z,96865.00
2023-01-17T19:14:15.838Z,96860.00
2023-01-17T19:16:44.072Z,96857.00
2023-01-17T19:19:16.717Z,96855.00
2023-01-17T19:21:44.883Z,96867.00
2023-01-17T19:24:14.372Z,96858.00
2023-01-17T19:26:43.003Z,96864.00
2023-01-17T19:29:12.029Z,96865.00
2023-01-17T19:31:43.185Z,96863.00
2023-01-17T19:34:14.713Z,96885.00
2023-01-17T19:36:43.259Z,96878.00
2023-01-17T19:39:11.817Z,96886.00
2023-01-17T19:41:45.459Z,96884.00
2023-01-17T19:44:16.076Z,96893.00
2023-01-17T19:46:46.159Z,96904.00
2023-01-17T19:49:19.787Z,96903.00
2023-01-17T19:51:49.413Z,96906.00
2023-01-17T19:54:17.889Z,96908.00
2023-01-17T19:56:45.889Z,96910.00
2023-01-17T19:59:14.141Z,96906.00
2023-01-17T20:01:42.455Z,96894.00
2023-01-17T20:04:10.551Z,96897.00
2023-01-17T20:06:40.389Z,96902.00
2023-01-17T20:09:08.636Z,96914.00
2023-01-17T20:11:37.529Z,96913.00
2023-01-17T20:14:06.478Z,96918.00
2023-01-17T20:16:37.451Z,96905.00
2023-01-17T20:19:06.261Z,96923.00
2023-01-17T20:21:34.505Z,96921.00
2023-01-17T20:24:04.397Z,96924.00
2023-01-17T20:26:37.783Z,96935.00
2023-01-17T20:29:10.233Z,96924.00
2023-01-17T20:31:39.984Z,96934.00
2023-01-17T20:34:10.781Z,96945.00
2023-01-17T20:36:41.672Z,96945.00
2023-01-17T20:39:14.457Z,96936.00
2023-01-17T20:41:45.591Z,96938.00
2023-01-17T20:44:16.270Z,96941.00
2023-01-17T20:46:45.389Z,96933.00
2023-01-17T20:49:16.669Z,96945.00
2023-01-17T20:51:46.412Z,96936.00
2023-01-17T20:54:19.341Z,96938.00
2023-01-17T20:56:48.626Z,96939.00
2023-01-17T20:59:20.257Z,96934.00
2023-01-17T21:01:48.918Z,96936.00
2023-01-17T21:04:20.135Z,96935.00
2023-01-17T21:06:51.676Z,96932.00
2023-01-17T21:09:22.135Z,96942.00
2023-01-17T21:11:50.578Z,96951.00
2023-01-17T21:14:18.980Z,96938.00
2023-01-17T21:16:47.105Z,96947.00
2023-01-17T21:19:16.169Z,96947.00
2023-01-17T21:21:44.432Z,96946.00
2023-01-17T21:24:16.416Z,96956.00
2023-01-17T21:26:46.971Z,96963.00
2023-01-17T21:29:15.815Z,96955.00
2023-01-17T21:31:45.074Z,96951.00
2023-01-17T21:34:14.680Z,96956.00
2023-01-17T21:36:44.036Z,96945.00
2023-01-17T21:39:15.801Z,96946.00
2023-01-17T21:41:49.563Z,96940.00
2023-01-17T21:44:21.504Z,96929.00
2023-01-17T21:46:54.188Z,96950.00
2023-01-17T21:49:23.340Z,96947.00
2023-01-17T21:52:09.136Z,96937.00
2023-01-17T21:55:06.037Z,96938.00
2023-01-17T21:57:52.905Z,96938.00
2023-01-17T22:00:21.147Z,96934.00
2023-01-17T22:02:49.555Z,96937.00
2023-01-17T22:05:18.509Z,96936.00
2023-01-17T22:08:00.816Z,96928.00
2023-01-17T22:10:29.127Z,96926.00
2023-01-17T22:12:58.369Z,96925.00
2023-01-17T22:15:26.315Z,96923.00
2023-01-17T22:17:54.375Z,96923.00
2023-01-17T22:20:22.376Z,96922.00
2023-01-17T22:22:50.233Z,96916.00
2023-01-17T22:25:18.221Z,96913.00
2023-01-17T22:27:46.117Z,96913.00
2023-01-17T22:30:16.410Z,96900.00
2023-01-17T22:32:44.265Z,96905.00
2023-01-17T22:35:12.170Z,96895.00
2023-01-17T22:37:40.105Z,96890.00
2023-01-17T22:40:11.685Z,96889.00
2023-01-17T22:42:40.039Z,96888.00
2023-01-17T22:45:10.539Z,96882.00
2023-01-17T22:47:40.363Z,96882.00
2023-01-17T22:50:09.295Z,96873.00
2023-01-17T22:52:37.207Z,96877.00
2023-01-17T22:55:05.947Z,96878.00
2023-01-17T22:57:33.963Z,96875.00
2023-01-17T23:00:01.829Z,96860.00
2023-01-17T23:02:29.737Z,96868.00
2023-01-17T23:04:58.907Z,96859.00
2023-01-17T23:07:26.985Z,96867.00
2023-01-17T23:09:54.891Z,96860.00
2023-01-17T23:12:22.767Z,96852.00
2023-01-17T23:15:08.360Z,96856.00
2023-01-17T23:17:53.750Z,96848.00
2023-01-17T23:20:22.948Z,96845.00
2023-01-17T23:22:51.688Z,96847.00
2023-01-17T23:25:20.168Z,96849.00
2023-01-17T23:28:06.409Z,96839.00
2023-01-17T23:30:37.390Z,96827.00
2023-01-17T23:33:07.627Z,96827.00
2023-01-17T23:35:41.750Z,96826.00
2023-01-17T23:38:30.027Z,96826.00
2023-01-17T23:41:20.116Z,96812.00
2023-01-17T23:43:52.632Z,96815.00
2023-01-17T23:46:21.785Z,96807.00
2023-01-17T23:48:50.060Z,96827.00
2023-01-17T23:51:19.465Z,96820.00
2023-01-17T23:53:47.478Z,96840.00
2023-01-17T23:56:19.410Z,96849.00
2023-01-17T23:58:47.548Z,96851.00
